sensor_id;sensor_type;location;lat;lon;timestamp;temperature;humidity
22578;DHT22;11455;52.390;13.028;2022-11-15T00:01:53;10.10;99.90
22578;DHT22;11455;52.390;13.028;2022-11-15T00:04:37;10.00;99.90
22578;DHT22;11455;52.390;13.028;2022-11-15T00:07:22;10.00;99.90
22578;DHT22;11455;52.390;13.028;2022-11-15T00:10:06;10.00;99.90
22578;DHT22;11455;52.390;13.028;2022-11-15T00:12:50;10.00;99.90
22578;DHT22;11455;52.390;13.028;2022-11-15T00:15:38;10.00;99.90
22578;DHT22;11455;52.390;13.028;2022-11-15T00:18:22;10.00;99.90
22578;DHT22;11455;52.390;13.028;2022-11-15T00:21:08;10.00;99.90
22578;DHT22;11455;52.390;13.028;2022-11-15T00:23:53;10.00;99.90
22578;DHT22;11455;52.390;13.028;2022-11-15T00:26:37;9.90;99.90
22578;DHT22;11455;52.390;13.028;2022-11-15T00:29:21;9.90;99.90
22578;DHT22;11455;52.390;13.028;2022-11-15T00:32:06;9.90;99.90
22578;DHT22;11455;52.390;13.028;2022-11-15T00:34:50;9.90;99.90
22578;DHT22;11455;52.390;13.028;2022-11-15T00:37:35;9.90;99.90
22578;DHT22;11455;52.390;13.028;2022-11-15T00:40:19;9.90;99.90
22578;DHT22;11455;52.390;13.028;2022-11-15T00:43:06;9.90;99.90
22578;DHT22;11455;52.390;13.028;2022-11-15T00:45:50;9.90;99.90
22578;DHT22;11455;52.390;13.028;2022-11-15T00:48:35;9.90;99.90
22578;DHT22;11455;52.390;13.028;2022-11-15T00:51:19;9.90;99.90
22578;DHT22;11455;52.390;13.028;2022-11-15T00:54:03;9.80;99.90
22578;DHT22;11455;52.390;13.028;2022-11-15T00:56:47;9.80;99.90
22578;DHT22;11455;52.390;13.028;2022-11-15T00:59:31;9.90;99.90
22578;DHT22;11455;52.390;13.028;2022-11-15T01:02:16;9.90;99.90
22578;DHT22;11455;52.390;13.028;2022-11-15T01:05:00;9.90;99.90
22578;DHT22;11455;52.390;13.028;2022-11-15T01:07:44;9.90;99.90
22578;DHT22;11455;52.390;13.028;2022-11-15T01:10:28;9.80;99.90
22578;DHT22;11455;52.390;13.028;2022-11-15T01:13:12;9.90;99.90
22578;DHT22;11455;52.390;13.028;2022-11-15T01:15:57;9.70;99.90
22578;DHT22;11455;52.390;13.028;2022-11-15T01:18:41;9.70;99.90
22578;DHT22;11455;52.390;13.028;2022-11-15T01:21:25;9.70;99.90
22578;DHT22;11455;52.390;13.028;2022-11-15T01:24:13;9.70;99.90
22578;DHT22;11455;52.390;13.028;2022-11-15T01:26:57;9.70;99.90
22578;DHT22;11455;52.390;13.028;2022-11-15T01:29:41;9.80;99.90
22578;DHT22;11455;52.390;13.028;2022-11-15T01:32:25;9.70;99.90
22578;DHT22;11455;52.390;13.028;2022-11-15T01:35:10;9.60;99.90
22578;DHT22;11455;52.390;13.028;2022-11-15T01:37:54;9.60;99.90
22578;DHT22;11455;52.390;13.028;2022-11-15T01:40:38;9.50;99.90
22578;DHT22;11455;52.390;13.028;2022-11-15T01:43:23;9.50;99.90
22578;DHT22;11455;52.390;13.028;2022-11-15T01:46:28;9.60;99.90
22578;DHT22;11455;52.390;13.028;2022-11-15T01:49:18;9.50;99.90
22578;DHT22;11455;52.390;13.028;2022-11-15T01:52:07;9.60;99.90
22578;DHT22;11455;52.390;13.028;2022-11-15T01:54:58;9.60;99.90
22578;DHT22;11455;52.390;13.028;2022-11-15T01:57:44;9.60;99.90
22578;DHT22;11455;52.390;13.028;2022-11-15T02:00:30;9.60;99.90
22578;DHT22;11455;52.390;13.028;2022-11-15T02:03:15;9.70;99.90
22578;DHT22;11455;52.390;13.028;2022-11-15T02:05:59;9.70;99.90
22578;DHT22;11455;52.390;13.028;2022-11-15T02:08:44;9.60;99.90
22578;DHT22;11455;52.390;13.028;2022-11-15T02:11:29;9.50;99.90
22578;DHT22;11455;52.390;13.028;2022-11-15T02:14:13;9.40;99.90
22578;DHT22;11455;52.390;13.028;2022-11-15T02:16:59;9.40;99.90
22578;DHT22;11455;52.390;13.028;2022-11-15T02:31:28;9.60;99.90
22578;DHT22;11455;52.390;13.028;2022-11-15T02:39:51;9.70;99.90
22578;DHT22;11455;52.390;13.028;2022-11-15T02:42:41;9.70;99.90
22578;DHT22;11455;52.390;13.028;2022-11-15T02:45:48;9.80;99.90
22578;DHT22;11455;52.390;13.028;2022-11-15T02:48:35;9.60;99.90
22578;DHT22;11455;52.390;13.028;2022-11-15T02:51:19;9.50;99.90
22578;DHT22;11455;52.390;13.028;2022-11-15T02:54:04;9.60;99.90
22578;DHT22;11455;52.390;13.028;2022-11-15T02:56:48;9.70;99.90
22578;DHT22;11455;52.390;13.028;2022-11-15T02:59:56;9.70;99.90
22578;DHT22;11455;52.390;13.028;2022-11-15T03:05:43;9.60;99.90
22578;DHT22;11455;52.390;13.028;2022-11-15T03:08:31;9.60;99.90
22578;DHT22;11455;52.390;13.028;2022-11-15T03:11:19;9.70;99.90
22578;DHT22;11455;52.390;13.028;2022-11-15T03:14:10;9.70;99.90
22578;DHT22;11455;52.390;13.028;2022-11-15T03:17:07;9.70;99.90
22578;DHT22;11455;52.390;13.028;2022-11-15T03:19:56;9.70;99.90
22578;DHT22;11455;52.390;13.028;2022-11-15T03:22:42;9.80;99.90
22578;DHT22;11455;52.390;13.028;2022-11-15T03:25:30;9.80;99.90
22578;DHT22;11455;52.390;13.028;2022-11-15T03:28:20;9.90;99.90
22578;DHT22;11455;52.390;13.028;2022-11-15T03:31:06;9.90;99.90
22578;DHT22;11455;52.390;13.028;2022-11-15T03:34:12;9.80;99.90
22578;DHT22;11455;52.390;13.028;2022-11-15T03:36:56;9.80;99.90
22578;DHT22;11455;52.390;13.028;2022-11-15T03:39:41;9.90;99.90
22578;DHT22;11455;52.390;13.028;2022-11-15T03:45:16;9.90;99.90
22578;DHT22;11455;52.390;13.028;2022-11-15T03:48:09;9.90;99.90
22578;DHT22;11455;52.390;13.028;2022-11-15T03:50:54;9.90;99.90
22578;DHT22;11455;52.390;13.028;2022-11-15T03:53:40;9.90;99.90
22578;DHT22;11455;52.390;13.028;2022-11-15T03:56:24;9.90;99.90
22578;DHT22;11455;52.390;13.028;2022-11-15T03:59:09;9.90;99.90
22578;DHT22;11455;52.390;13.028;2022-11-15T04:01:53;9.90;99.90
22578;DHT22;11455;52.390;13.028;2022-11-15T04:04:37;9.90;99.90
22578;DHT22;11455;52.390;13.028;2022-11-15T04:07:22;9.90;99.90
22578;DHT22;11455;52.390;13.028;2022-11-15T04:10:06;9.90;99.90
22578;DHT22;11455;52.390;13.028;2022-11-15T04:12:50;9.90;99.90
22578;DHT22;11455;52.390;13.028;2022-11-15T04:15:37;9.90;99.90
22578;DHT22;11455;52.390;13.028;2022-11-15T04:18:21;9.80;99.90
22578;DHT22;11455;52.390;13.028;2022-11-15T04:21:06;9.80;99.90
22578;DHT22;11455;52.390;13.028;2022-11-15T04:24:29;9.80;99.90
22578;DHT22;11455;52.390;13.028;2022-11-15T04:27:13;9.80;99.90
22578;DHT22;11455;52.390;13.028;2022-11-15T04:29:57;9.80;99.90
22578;DHT22;11455;52.390;13.028;2022-11-15T04:32:42;9.80;99.90
22578;DHT22;11455;52.390;13.028;2022-11-15T04:35:26;9.80;99.90
22578;DHT22;11455;52.390;13.028;2022-11-15T04:38:11;9.80;99.90
22578;DHT22;11455;52.390;13.028;2022-11-15T04:40:55;9.80;99.90
22578;DHT22;11455;52.390;13.028;2022-11-15T04:43:40;9.70;99.90
22578;DHT22;11455;52.390;13.028;2022-11-15T04:46:24;9.70;99.90
22578;DHT22;11455;52.390;13.028;2022-11-15T04:49:08;9.70;99.90
22578;DHT22;11455;52.390;13.028;2022-11-15T04:51:52;9.60;99.90
22578;DHT22;11455;52.390;13.028;2022-11-15T04:54:37;9.70;99.90
22578;DHT22;11455;52.390;13.028;2022-11-15T04:57:21;9.70;99.90
22578;DHT22;11455;52.390;13.028;2022-11-15T05:00:06;9.60;99.90
22578;DHT22;11455;52.390;13.028;2022-11-15T05:02:50;9.70;99.90
22578;DHT22;11455;52.390;13.028;2022-11-15T05:05:53;9.70;99.90
22578;DHT22;11455;52.390;13.028;2022-11-15T05:08:38;9.70;99.90
22578;DHT22;11455;52.390;13.028;2022-11-15T05:11:24;9.60;99.90
22578;DHT22;11455;52.390;13.028;2022-11-15T05:14:12;9.50;99.90
22578;DHT22;11455;52.390;13.028;2022-11-15T05:16:56;9.50;99.90
22578;DHT22;11455;52.390;13.028;2022-11-15T05:19:40;9.60;99.90
22578;DHT22;11455;52.390;13.028;2022-11-15T05:22:24;9.60;99.90
22578;DHT22;11455;52.390;13.028;2022-11-15T05:25:08;9.50;99.90
22578;DHT22;11455;52.390;13.028;2022-11-15T05:27:52;9.60;99.90
22578;DHT22;11455;52.390;13.028;2022-11-15T05:30:37;9.60;99.90
22578;DHT22;11455;52.390;13.028;2022-11-15T05:33:21;9.60;99.90
22578;DHT22;11455;52.390;13.028;2022-11-15T05:38:56;9.60;99.90
22578;DHT22;11455;52.390;13.028;2022-11-15T05:41:41;9.60;99.90
22578;DHT22;11455;52.390;13.028;2022-11-15T05:44:26;9.60;99.90
22578;DHT22;11455;52.390;13.028;2022-11-15T05:47:11;9.60;99.90
22578;DHT22;11455;52.390;13.028;2022-11-15T05:49:56;9.50;99.90
22578;DHT22;11455;52.390;13.028;2022-11-15T05:52:43;9.50;99.90
22578;DHT22;11455;52.390;13.028;2022-11-15T05:55:28;9.50;99.90
22578;DHT22;11455;52.390;13.028;2022-11-15T05:58:12;9.60;99.90
22578;DHT22;11455;52.390;13.028;2022-11-15T06:00:56;9.50;99.90
22578;DHT22;11455;52.390;13.028;2022-11-15T06:03:41;9.50;99.90
22578;DHT22;11455;52.390;13.028;2022-11-15T06:06:28;9.50;99.90
22578;DHT22;11455;52.390;13.028;2022-11-15T06:09:15;9.60;99.90
22578;DHT22;11455;52.390;13.028;2022-11-15T06:12:00;9.60;99.90
22578;DHT22;11455;52.390;13.028;2022-11-15T06:14:44;9.60;99.90
22578;DHT22;11455;52.390;13.028;2022-11-15T06:17:28;9.60;99.90
22578;DHT22;11455;52.390;13.028;2022-11-15T06:20:12;9.60;99.90
22578;DHT22;11455;52.390;13.028;2022-11-15T06:23:02;9.50;99.90
22578;DHT22;11455;52.390;13.028;2022-11-15T06:25:46;9.50;99.90
22578;DHT22;11455;52.390;13.028;2022-11-15T06:28:31;9.50;99.90
22578;DHT22;11455;52.390;13.028;2022-11-15T06:31:15;9.50;99.90
22578;DHT22;11455;52.390;13.028;2022-11-15T06:33:59;9.60;99.90
22578;DHT22;11455;52.390;13.028;2022-11-15T06:36:47;9.60;99.90
22578;DHT22;11455;52.390;13.028;2022-11-15T06:39:31;9.60;99.90
22578;DHT22;11455;52.390;13.028;2022-11-15T06:42:15;9.60;99.90
22578;DHT22;11455;52.390;13.028;2022-11-15T06:44:59;9.60;99.90
22578;DHT22;11455;52.390;13.028;2022-11-15T06:47:47;9.60;99.90
22578;DHT22;11455;52.390;13.028;2022-11-15T06:50:31;9.60;99.90
22578;DHT22;11455;52.390;13.028;2022-11-15T06:53:15;9.70;99.90
22578;DHT22;11455;52.390;13.028;2022-11-15T06:56:00;9.70;99.90
22578;DHT22;11455;52.390;13.028;2022-11-15T06:58:47;9.70;99.90
22578;DHT22;11455;52.390;13.028;2022-11-15T07:01:32;9.60;99.90
22578;DHT22;11455;52.390;13.028;2022-11-15T07:04:16;9.60;99.90
22578;DHT22;11455;52.390;13.028;2022-11-15T07:07:00;9.70;99.90
22578;DHT22;11455;52.390;13.028;2022-11-15T07:09:44;9.70;99.90
22578;DHT22;11455;52.390;13.028;2022-11-15T07:12:28;9.70;99.90
22578;DHT22;11455;52.390;13.028;2022-11-15T07:15:13;9.70;99.90
22578;DHT22;11455;52.390;13.028;2022-11-15T07:18:00;9.80;99.90
22578;DHT22;11455;52.390;13.028;2022-11-15T07:20:44;9.90;99.90
22578;DHT22;11455;52.390;13.028;2022-11-15T07:23:28;10.00;99.90
22578;DHT22;11455;52.390;13.028;2022-11-15T07:26:12;10.00;99.90
22578;DHT22;11455;52.390;13.028;2022-11-15T07:28:57;10.00;99.90
22578;DHT22;11455;52.390;13.028;2022-11-15T07:31:41;10.00;99.90
22578;DHT22;11455;52.390;13.028;2022-11-15T07:34:26;10.00;99.90
22578;DHT22;11455;52.390;13.028;2022-11-15T07:37:10;10.00;99.90
22578;DHT22;11455;52.390;13.028;2022-11-15T07:39:54;10.00;99.90
22578;DHT22;11455;52.390;13.028;2022-11-15T07:42:38;10.00;99.90
22578;DHT22;11455;52.390;13.028;2022-11-15T07:45:42;10.00;99.90
22578;DHT22;11455;52.390;13.028;2022-11-15T07:48:27;10.00;99.90
22578;DHT22;11455;52.390;13.028;2022-11-15T07:51:12;10.00;99.90
22578;DHT22;11455;52.390;13.028;2022-11-15T07:53:57;10.00;99.90
22578;DHT22;11455;52.390;13.028;2022-11-15T07:56:41;10.10;99.90
22578;DHT22;11455;52.390;13.028;2022-11-15T07:59:25;10.10;99.90
22578;DHT22;11455;52.390;13.028;2022-11-15T08:02:10;10.10;99.90
22578;DHT22;11455;52.390;13.028;2022-11-15T08:04:54;10.10;99.90
22578;DHT22;11455;52.390;13.028;2022-11-15T08:07:38;10.20;99.90
22578;DHT22;11455;52.390;13.028;2022-11-15T08:10:24;10.20;99.90
22578;DHT22;11455;52.390;13.028;2022-11-15T08:13:10;10.20;99.90
22578;DHT22;11455;52.390;13.028;2022-11-15T08:15:57;10.20;99.90
22578;DHT22;11455;52.390;13.028;2022-11-15T08:18:44;10.20;99.90
22578;DHT22;11455;52.390;13.028;2022-11-15T08:21:31;10.20;99.90
22578;DHT22;11455;52.390;13.028;2022-11-15T08:24:15;10.20;99.90
22578;DHT22;11455;52.390;13.028;2022-11-15T08:27:00;10.20;99.90
22578;DHT22;11455;52.390;13.028;2022-11-15T08:29:44;10.20;99.90
22578;DHT22;11455;52.390;13.028;2022-11-15T08:32:30;10.20;99.90
22578;DHT22;11455;52.390;13.028;2022-11-15T08:35:14;10.30;99.90
22578;DHT22;11455;52.390;13.028;2022-11-15T08:37:58;10.40;99.90
22578;DHT22;11455;52.390;13.028;2022-11-15T08:40:42;10.40;99.90
22578;DHT22;11455;52.390;13.028;2022-11-15T08:43:26;10.40;99.90
22578;DHT22;11455;52.390;13.028;2022-11-15T08:46:11;10.50;99.90
22578;DHT22;11455;52.390;13.028;2022-11-15T08:48:56;10.60;99.90
22578;DHT22;11455;52.390;13.028;2022-11-15T08:51:40;10.60;99.90
22578;DHT22;11455;52.390;13.028;2022-11-15T08:54:24;10.70;99.90
22578;DHT22;11455;52.390;13.028;2022-11-15T08:57:09;10.70;99.90
22578;DHT22;11455;52.390;13.028;2022-11-15T08:59:53;10.70;99.90
22578;DHT22;11455;52.390;13.028;2022-11-15T09:02:38;10.80;99.90
22578;DHT22;11455;52.390;13.028;2022-11-15T09:05:22;10.80;99.90
22578;DHT22;11455;52.390;13.028;2022-11-15T09:08:06;10.80;99.90
22578;DHT22;11455;52.390;13.028;2022-11-15T09:10:50;10.80;99.90
22578;DHT22;11455;52.390;13.028;2022-11-15T09:13:35;10.90;99.90
22578;DHT22;11455;52.390;13.028;2022-11-15T09:16:20;10.90;99.90
22578;DHT22;11455;52.390;13.028;2022-11-15T09:19:05;10.90;99.90
22578;DHT22;11455;52.390;13.028;2022-11-15T09:21:49;11.00;99.90
22578;DHT22;11455;52.390;13.028;2022-11-15T09:24:33;11.00;99.90
22578;DHT22;11455;52.390;13.028;2022-11-15T09:27:18;11.10;99.90
22578;DHT22;11455;52.390;13.028;2022-11-15T09:30:02;11.10;99.90
22578;DHT22;11455;52.390;13.028;2022-11-15T09:32:46;11.10;99.90
22578;DHT22;11455;52.390;13.028;2022-11-15T09:35:30;11.20;99.90
22578;DHT22;11455;52.390;13.028;2022-11-15T09:38:15;11.20;99.90
22578;DHT22;11455;52.390;13.028;2022-11-15T09:41:47;11.20;99.90
22578;DHT22;11455;52.390;13.028;2022-11-15T09:44:10;11.30;99.90
22578;DHT22;11455;52.390;13.028;2022-11-15T09:50:11;11.40;99.90
22578;DHT22;11455;52.390;13.028;2022-11-15T09:52:39;11.50;99.90
22578;DHT22;11455;52.390;13.028;2022-11-15T09:55:08;11.60;99.90
22578;DHT22;11455;52.390;13.028;2022-11-15T10:00:12;11.70;99.90
22578;DHT22;11455;52.390;13.028;2022-11-15T10:05:18;11.80;99.90
22578;DHT22;11455;52.390;13.028;2022-11-15T10:12:39;11.90;99.90
22578;DHT22;11455;52.390;13.028;2022-11-15T10:15:09;11.90;99.90
22578;DHT22;11455;52.390;13.028;2022-11-15T10:25:19;12.10;99.90
22578;DHT22;11455;52.390;13.028;2022-11-15T10:27:47;12.10;99.90
22578;DHT22;11455;52.390;13.028;2022-11-15T10:30:17;12.10;99.90
22578;DHT22;11455;52.390;13.028;2022-11-15T10:32:44;12.10;99.90
22578;DHT22;11455;52.390;13.028;2022-11-15T10:35:23;12.10;99.90
22578;DHT22;11455;52.390;13.028;2022-11-15T10:37:49;12.10;99.90
22578;DHT22;11455;52.390;13.028;2022-11-15T10:40:17;12.10;99.90
22578;DHT22;11455;52.390;13.028;2022-11-15T10:42:42;12.20;99.90
22578;DHT22;11455;52.390;13.028;2022-11-15T10:50:39;12.20;99.90
22578;DHT22;11455;52.390;13.028;2022-11-15T10:53:17;12.30;99.90
22578;DHT22;11455;52.390;13.028;2022-11-15T10:55:49;12.30;99.90
22578;DHT22;11455;52.390;13.028;2022-11-15T11:01:18;12.50;99.90
22578;DHT22;11455;52.390;13.028;2022-11-15T11:03:45;12.50;99.90
22578;DHT22;11455;52.390;13.028;2022-11-15T11:06:25;12.60;99.90
22578;DHT22;11455;52.390;13.028;2022-11-15T11:08:54;12.70;99.90
22578;DHT22;11455;52.390;13.028;2022-11-15T11:11:20;12.80;99.90
22578;DHT22;11455;52.390;13.028;2022-11-15T11:13:48;12.90;99.90
22578;DHT22;11455;52.390;13.028;2022-11-15T11:21:18;13.10;99.90
22578;DHT22;11455;52.390;13.028;2022-11-15T11:28:45;13.30;93.50
22578;DHT22;11455;52.390;13.028;2022-11-15T11:39:18;13.60;54.20
22578;DHT22;11455;52.390;13.028;2022-11-15T11:44:26;13.70;48.50
22578;DHT22;11455;52.390;13.028;2022-11-15T11:46:55;13.90;40.50
22578;DHT22;11455;52.390;13.028;2022-11-15T11:49:26;14.00;36.40
22578;DHT22;11455;52.390;13.028;2022-11-15T11:52:01;14.10;37.30
22578;DHT22;11455;52.390;13.028;2022-11-15T11:54:39;14.20;26.00
22578;DHT22;11455;52.390;13.028;2022-11-15T11:57:22;14.30;22.50
22578;DHT22;11455;52.390;13.028;2022-11-15T12:02:39;14.40;26.50
22578;DHT22;11455;52.390;13.028;2022-11-15T12:07:57;14.60;9.10
22578;DHT22;11455;52.390;13.028;2022-11-15T12:10:32;14.70;11.30
22578;DHT22;11455;52.390;13.028;2022-11-15T12:13:00;14.80;14.90
22578;DHT22;11455;52.390;13.028;2022-11-15T12:15:39;14.80;1.00
22578;DHT22;11455;52.390;13.028;2022-11-15T12:18:07;14.90;1.00
22578;DHT22;11455;52.390;13.028;2022-11-15T12:20:34;14.90;1.00
22578;DHT22;11455;52.390;13.028;2022-11-15T12:23:11;14.90;1.00
22578;DHT22;11455;52.390;13.028;2022-11-15T12:25:46;15.00;1.00
22578;DHT22;11455;52.390;13.028;2022-11-15T12:28:33;15.00;1.00
22578;DHT22;11455;52.390;13.028;2022-11-15T12:31:05;15.00;1.00
22578;DHT22;11455;52.390;13.028;2022-11-15T12:41:17;15.40;1.00
22578;DHT22;11455;52.390;13.028;2022-11-15T12:43:44;15.50;1.00
22578;DHT22;11455;52.390;13.028;2022-11-15T12:48:52;15.60;1.00
22578;DHT22;11455;52.390;13.028;2022-11-15T12:54:19;15.70;1.00
22578;DHT22;11455;52.390;13.028;2022-11-15T13:02:20;15.90;1.00
22578;DHT22;11455;52.390;13.028;2022-11-15T13:04:50;15.90;1.00
22578;DHT22;11455;52.390;13.028;2022-11-15T13:10:00;16.10;1.00
22578;DHT22;11455;52.390;13.028;2022-11-15T13:14:58;16.10;1.00
22578;DHT22;11455;52.390;13.028;2022-11-15T13:22:24;16.20;1.00
22578;DHT22;11455;52.390;13.028;2022-11-15T13:25:19;16.30;1.00
22578;DHT22;11455;52.390;13.028;2022-11-15T13:27:49;16.30;1.00
22578;DHT22;11455;52.390;13.028;2022-11-15T13:30:18;16.30;1.00
22578;DHT22;11455;52.390;13.028;2022-11-15T13:32:44;16.40;1.00
22578;DHT22;11455;52.390;13.028;2022-11-15T13:35:19;16.30;1.00
22578;DHT22;11455;52.390;13.028;2022-11-15T13:37:45;16.30;1.00
22578;DHT22;11455;52.390;13.028;2022-11-15T13:42:43;16.20;1.00
22578;DHT22;11455;52.390;13.028;2022-11-15T13:45:11;16.10;1.00
22578;DHT22;11455;52.390;13.028;2022-11-15T13:47:38;16.00;1.00
22578;DHT22;11455;52.390;13.028;2022-11-15T13:50:03;15.80;1.00
22578;DHT22;11455;52.390;13.028;2022-11-15T13:52:34;15.80;1.00
22578;DHT22;11455;52.390;13.028;2022-11-15T13:55:08;15.70;1.00
22578;DHT22;11455;52.390;13.028;2022-11-15T13:57:39;15.60;1.00
22578;DHT22;11455;52.390;13.028;2022-11-15T14:00:21;15.50;1.00
22578;DHT22;11455;52.390;13.028;2022-11-15T14:02:47;15.40;1.00
22578;DHT22;11455;52.390;13.028;2022-11-15T14:07:39;15.20;1.00
22578;DHT22;11455;52.390;13.028;2022-11-15T14:13:03;15.10;1.00
22578;DHT22;11455;52.390;13.028;2022-11-15T14:15:33;15.10;1.00
22578;DHT22;11455;52.390;13.028;2022-11-15T14:17:59;15.00;1.00
22578;DHT22;11455;52.390;13.028;2022-11-15T14:20:30;14.90;1.00
22578;DHT22;11455;52.390;13.028;2022-11-15T14:22:58;14.90;1.00
22578;DHT22;11455;52.390;13.028;2022-11-15T14:25:24;14.80;1.00
22578;DHT22;11455;52.390;13.028;2022-11-15T14:30:35;14.80;1.00
22578;DHT22;11455;52.390;13.028;2022-11-15T14:33:01;14.80;2.20
22578;DHT22;11455;52.390;13.028;2022-11-15T14:35:28;14.80;8.10
22578;DHT22;11455;52.390;13.028;2022-11-15T14:37:53;14.80;15.80
22578;DHT22;11455;52.390;13.028;2022-11-15T14:40:20;14.70;17.90
22578;DHT22;11455;52.390;13.028;2022-11-15T14:42:49;14.70;19.50
22578;DHT22;11455;52.390;13.028;2022-11-15T14:45:16;14.60;23.40
22578;DHT22;11455;52.390;13.028;2022-11-15T14:47:42;14.60;32.30
22578;DHT22;11455;52.390;13.028;2022-11-15T14:50:17;14.60;41.30
22578;DHT22;11455;52.390;13.028;2022-11-15T14:52:44;14.60;46.40
22578;DHT22;11455;52.390;13.028;2022-11-15T14:55:20;14.50;54.30
22578;DHT22;11455;52.390;13.028;2022-11-15T14:57:46;14.50;56.40
22578;DHT22;11455;52.390;13.028;2022-11-15T15:00:12;14.40;71.60
22578;DHT22;11455;52.390;13.028;2022-11-15T15:02:38;14.40;80.40
22578;DHT22;11455;52.390;13.028;2022-11-15T15:05:17;14.40;88.20
22578;DHT22;11455;52.390;13.028;2022-11-15T15:07:46;14.30;93.30
22578;DHT22;11455;52.390;13.028;2022-11-15T15:10:12;14.30;99.30
22578;DHT22;11455;52.390;13.028;2022-11-15T15:12:41;14.20;99.90
22578;DHT22;11455;52.390;13.028;2022-11-15T15:15:14;14.30;99.90
22578;DHT22;11455;52.390;13.028;2022-11-15T15:17:40;14.20;99.90
22578;DHT22;11455;52.390;13.028;2022-11-15T15:20:06;14.20;99.90
22578;DHT22;11455;52.390;13.028;2022-11-15T15:22:32;14.10;99.90
22578;DHT22;11455;52.390;13.028;2022-11-15T15:24:58;14.10;99.90
22578;DHT22;11455;52.390;13.028;2022-11-15T15:27:23;14.10;99.90
22578;DHT22;11455;52.390;13.028;2022-11-15T15:29:49;14.00;99.90
22578;DHT22;11455;52.390;13.028;2022-11-15T15:32:14;14.10;99.90
22578;DHT22;11455;52.390;13.028;2022-11-15T15:34:40;14.00;99.90
22578;DHT22;11455;52.390;13.028;2022-11-15T15:37:19;14.00;99.90
22578;DHT22;11455;52.390;13.028;2022-11-15T15:39:50;14.00;99.90
22578;DHT22;11455;52.390;13.028;2022-11-15T15:42:15;13.90;99.90
22578;DHT22;11455;52.390;13.028;2022-11-15T15:44:41;13.90;99.90
22578;DHT22;11455;52.390;13.028;2022-11-15T15:47:09;13.70;99.90
22578;DHT22;11455;52.390;13.028;2022-11-15T15:49:36;13.70;99.90
22578;DHT22;11455;52.390;13.028;2022-11-15T15:52:02;13.70;99.90
22578;DHT22;11455;52.390;13.028;2022-11-15T15:54:30;13.60;99.90
22578;DHT22;11455;52.390;13.028;2022-11-15T15:56:56;13.60;99.90
22578;DHT22;11455;52.390;13.028;2022-11-15T15:59:21;13.60;99.90
22578;DHT22;11455;52.390;13.028;2022-11-15T16:01:47;13.60;99.90
22578;DHT22;11455;52.390;13.028;2022-11-15T16:04:12;13.60;99.90
22578;DHT22;11455;52.390;13.028;2022-11-15T16:06:40;13.60;99.90
22578;DHT22;11455;52.390;13.028;2022-11-15T16:09:15;13.50;99.90
22578;DHT22;11455;52.390;13.028;2022-11-15T16:11:42;13.50;99.90
22578;DHT22;11455;52.390;13.028;2022-11-15T16:14:08;13.50;99.90
22578;DHT22;11455;52.390;13.028;2022-11-15T16:16:36;13.40;99.90
22578;DHT22;11455;52.390;13.028;2022-11-15T16:19:02;13.40;99.90
22578;DHT22;11455;52.390;13.028;2022-11-15T16:21:28;13.40;99.90
22578;DHT22;11455;52.390;13.028;2022-11-15T16:23:53;13.40;99.90
22578;DHT22;11455;52.390;13.028;2022-11-15T16:26:20;13.40;99.90
22578;DHT22;11455;52.390;13.028;2022-11-15T16:28:46;13.30;99.90
22578;DHT22;11455;52.390;13.028;2022-11-15T16:31:12;13.30;99.90
22578;DHT22;11455;52.390;13.028;2022-11-15T16:33:38;13.30;99.90
22578;DHT22;11455;52.390;13.028;2022-11-15T16:36:04;13.30;99.90
22578;DHT22;11455;52.390;13.028;2022-11-15T16:38:30;13.30;99.90
22578;DHT22;11455;52.390;13.028;2022-11-15T16:40:56;13.30;99.90
22578;DHT22;11455;52.390;13.028;2022-11-15T16:43:24;13.30;99.90
22578;DHT22;11455;52.390;13.028;2022-11-15T16:45:50;13.20;99.90
22578;DHT22;11455;52.390;13.028;2022-11-15T16:48:26;13.20;99.90
22578;DHT22;11455;52.390;13.028;2022-11-15T16:50:56;13.20;99.90
22578;DHT22;11455;52.390;13.028;2022-11-15T16:53:22;13.20;99.90
22578;DHT22;11455;52.390;13.028;2022-11-15T16:55:50;13.10;99.90
22578;DHT22;11455;52.390;13.028;2022-11-15T16:58:16;13.00;99.90
22578;DHT22;11455;52.390;13.028;2022-11-15T17:00:41;13.00;99.90
22578;DHT22;11455;52.390;13.028;2022-11-15T17:03:07;13.00;99.90
22578;DHT22;11455;52.390;13.028;2022-11-15T17:05:41;12.90;99.90
22578;DHT22;11455;52.390;13.028;2022-11-15T17:08:07;12.90;99.90
22578;DHT22;11455;52.390;13.028;2022-11-15T17:10:33;12.90;99.90
22578;DHT22;11455;52.390;13.028;2022-11-15T17:12:58;12.90;99.90
22578;DHT22;11455;52.390;13.028;2022-11-15T17:15:24;12.80;99.90
22578;DHT22;11455;52.390;13.028;2022-11-15T17:17:53;12.80;99.90
22578;DHT22;11455;52.390;13.028;2022-11-15T17:20:22;12.80;99.90
22578;DHT22;11455;52.390;13.028;2022-11-15T17:22:48;12.80;99.90
22578;DHT22;11455;52.390;13.028;2022-11-15T17:25:14;12.90;99.90
22578;DHT22;11455;52.390;13.028;2022-11-15T17:27:39;12.80;99.90
22578;DHT22;11455;52.390;13.028;2022-11-15T17:30:05;12.80;99.90
22578;DHT22;11455;52.390;13.028;2022-11-15T17:32:35;12.80;99.90
22578;DHT22;11455;52.390;13.028;2022-11-15T17:35:04;12.80;99.90
22578;DHT22;11455;52.390;13.028;2022-11-15T17:37:33;12.80;99.90
22578;DHT22;11455;52.390;13.028;2022-11-15T17:40:01;12.80;99.90
22578;DHT22;11455;52.390;13.028;2022-11-15T17:42:27;12.80;99.90
22578;DHT22;11455;52.390;13.028;2022-11-15T17:44:52;12.70;99.90
22578;DHT22;11455;52.390;13.028;2022-11-15T17:47:18;12.70;99.90
22578;DHT22;11455;52.390;13.028;2022-11-15T17:49:44;12.70;99.90
22578;DHT22;11455;52.390;13.028;2022-11-15T17:52:12;12.70;99.90
22578;DHT22;11455;52.390;13.028;2022-11-15T17:54:38;12.70;99.90
22578;DHT22;11455;52.390;13.028;2022-11-15T17:57:04;12.70;99.90
22578;DHT22;11455;52.390;13.028;2022-11-15T17:59:29;12.70;99.90
22578;DHT22;11455;52.390;13.028;2022-11-15T18:01:55;12.60;99.90
22578;DHT22;11455;52.390;13.028;2022-11-15T18:04:29;12.50;99.90
22578;DHT22;11455;52.390;13.028;2022-11-15T18:06:55;12.50;99.90
22578;DHT22;11455;52.390;13.028;2022-11-15T18:09:23;12.50;99.90
22578;DHT22;11455;52.390;13.028;2022-11-15T18:11:50;12.50;99.90
22578;DHT22;11455;52.390;13.028;2022-11-15T18:14:16;12.40;99.90
22578;DHT22;11455;52.390;13.028;2022-11-15T18:16:42;12.50;99.90
22578;DHT22;11455;52.390;13.028;2022-11-15T18:19:07;12.50;99.90
22578;DHT22;11455;52.390;13.028;2022-11-15T18:21:37;12.50;99.90
22578;DHT22;11455;52.390;13.028;2022-11-15T18:24:24;12.40;99.90
22578;DHT22;11455;52.390;13.028;2022-11-15T18:26:49;12.40;99.90
22578;DHT22;11455;52.390;13.028;2022-11-15T18:29:15;12.40;99.90
22578;DHT22;11455;52.390;13.028;2022-11-15T18:31:41;12.30;99.90